< < Back
Terminal Aerodrome Forecast


Current Version              Previous Versions:   1  2  3  4  5  6  7  8  9  

Terminal Aerodrome Forecast

690
FTUS42 KFFC 271500 AAA
TAFFTY
TAF AMD
KFTY 271530Z 2716/2812 12003KT P6SM FEW045
     FM272000 35003KT P6SM FEW050
     FM280000 00000KT P6SM SKC=



Latest METAR

983
SAUS70 KWBC 281100 RRE
MTRFTY
METAR KFTY 281053Z 00000KT 10SM CLR 17/16 A3006 RMK AO2 SLP169
T01720156


USA.gov is the U.S. government's official web portal to all federal, state and local government web resources and services.